sensor_id;sensor_type;location;lat;lon;timestamp;pressure;altitude;pressure_sealevel;temperature;humidity
30618;BME280;17384;51.214;9.202;2023-03-03T00:01:15;99248.09;;;-1.60;94.17
30618;BME280;17384;51.214;9.202;2023-03-03T00:03:42;99252.81;;;-1.63;93.88
30618;BME280;17384;51.214;9.202;2023-03-03T00:06:12;99243.00;;;-1.63;94.44
30618;BME280;17384;51.214;9.202;2023-03-03T00:08:39;99238.41;;;-1.61;93.95
30618;BME280;17384;51.214;9.202;2023-03-03T00:11:05;99233.22;;;-1.62;93.98
30618;BME280;17384;51.214;9.202;2023-03-03T00:13:40;99241.06;;;-1.61;94.09
30618;BME280;17384;51.214;9.202;2023-03-03T00:18:56;99232.66;;;-1.66;94.08
30618;BME280;17384;51.214;9.202;2023-03-03T00:21:39;99246.81;;;-1.65;94.15
30618;BME280;17384;51.214;9.202;2023-03-03T00:24:22;99240.16;;;-1.71;94.34
30618;BME280;17384;51.214;9.202;2023-03-03T00:26:56;99247.06;;;-1.68;94.47
30618;BME280;17384;51.214;9.202;2023-03-03T00:29:30;99247.66;;;-1.65;94.20
30618;BME280;17384;51.214;9.202;2023-03-03T00:32:26;99265.41;;;-1.65;93.71
30618;BME280;17384;51.214;9.202;2023-03-03T00:34:54;99258.28;;;-1.65;93.82
30618;BME280;17384;51.214;9.202;2023-03-03T00:37:31;99241.66;;;-1.57;94.10
30618;BME280;17384;51.214;9.202;2023-03-03T00:43:19;99257.75;;;-1.59;93.73
30618;BME280;17384;51.214;9.202;2023-03-03T00:45:52;99258.34;;;-1.55;93.74
30618;BME280;17384;51.214;9.202;2023-03-03T00:53:35;99260.50;;;-1.49;93.63
30618;BME280;17384;51.214;9.202;2023-03-03T00:56:00;99258.34;;;-1.55;93.38
30618;BME280;17384;51.214;9.202;2023-03-03T00:58:26;99240.31;;;-1.52;93.28
30618;BME280;17384;51.214;9.202;2023-03-03T01:00:53;99251.22;;;-1.55;93.29
30618;BME280;17384;51.214;9.202;2023-03-03T01:03:22;99259.06;;;-1.53;93.14
30618;BME280;17384;51.214;9.202;2023-03-03T01:05:50;99240.91;;;-1.48;93.60
30618;BME280;17384;51.214;9.202;2023-03-03T01:08:16;99241.16;;;-1.51;93.30
30618;BME280;17384;51.214;9.202;2023-03-03T01:10:47;99249.47;;;-1.45;93.08
30618;BME280;17384;51.214;9.202;2023-03-03T01:13:17;99241.03;;;-1.50;92.91
30618;BME280;17384;51.214;9.202;2023-03-03T01:15:42;99232.91;;;-1.48;93.05
30618;BME280;17384;51.214;9.202;2023-03-03T01:18:10;99232.19;;;-1.50;92.66
30618;BME280;17384;51.214;9.202;2023-03-03T01:20:36;99251.66;;;-1.50;92.69
30618;BME280;17384;51.214;9.202;2023-03-03T01:23:03;99251.53;;;-1.48;92.34
30618;BME280;17384;51.214;9.202;2023-03-03T01:25:28;99245.72;;;-1.42;92.60
30618;BME280;17384;51.214;9.202;2023-03-03T01:27:54;99257.72;;;-1.48;92.35
30618;BME280;17384;51.214;9.202;2023-03-03T01:30:20;99236.44;;;-1.48;92.54
30618;BME280;17384;51.214;9.202;2023-03-03T01:32:46;99247.44;;;-1.52;92.36
30618;BME280;17384;51.214;9.202;2023-03-03T01:35:11;99239.47;;;-1.52;92.31
30618;BME280;17384;51.214;9.202;2023-03-03T01:37:37;99251.88;;;-1.42;92.29
30618;BME280;17384;51.214;9.202;2023-03-03T01:40:05;99255.19;;;-1.49;92.14
30618;BME280;17384;51.214;9.202;2023-03-03T01:42:31;99244.50;;;-1.38;92.06
30618;BME280;17384;51.214;9.202;2023-03-03T01:47:44;99237.13;;;-1.25;91.11
30618;BME280;17384;51.214;9.202;2023-03-03T01:50:14;99240.69;;;-1.36;91.07
30618;BME280;17384;51.214;9.202;2023-03-03T01:52:43;99230.47;;;-1.40;90.98
30618;BME280;17384;51.214;9.202;2023-03-03T01:55:14;99244.88;;;-1.43;91.40
30618;BME280;17384;51.214;9.202;2023-03-03T01:57:46;99245.00;;;-1.44;91.32
30618;BME280;17384;51.214;9.202;2023-03-03T02:00:13;99245.72;;;-1.42;91.14
30618;BME280;17384;51.214;9.202;2023-03-03T02:02:41;99244.88;;;-1.43;90.78
30618;BME280;17384;51.214;9.202;2023-03-03T02:05:08;99258.34;;;-1.55;90.94
30618;BME280;17384;51.214;9.202;2023-03-03T02:07:34;99249.84;;;-1.49;91.14
30618;BME280;17384;51.214;9.202;2023-03-03T02:10:15;99257.13;;;-1.51;91.12
30618;BME280;17384;51.214;9.202;2023-03-03T02:12:50;99247.44;;;-1.52;91.16
30618;BME280;17384;51.214;9.202;2023-03-03T02:15:25;99242.72;;;-1.49;91.09
30618;BME280;17384;51.214;9.202;2023-03-03T02:18:04;99255.50;;;-1.43;90.85
30618;BME280;17384;51.214;9.202;2023-03-03T02:28:32;99231.22;;;-1.28;90.12
30618;BME280;17384;51.214;9.202;2023-03-03T02:30:59;99228.81;;;-1.31;90.56
30618;BME280;17384;51.214;9.202;2023-03-03T02:33:26;99237.34;;;-1.38;90.22
30618;BME280;17384;51.214;9.202;2023-03-03T02:35:52;99248.16;;;-1.50;90.36
30618;BME280;17384;51.214;9.202;2023-03-03T02:38:25;99243.72;;;-1.61;90.59
30618;BME280;17384;51.214;9.202;2023-03-03T02:44:01;99235.59;;;-1.48;90.44
30618;BME280;17384;51.214;9.202;2023-03-03T02:46:32;99242.13;;;-1.52;90.53
30618;BME280;17384;51.214;9.202;2023-03-03T02:48:58;99228.69;;;-1.51;90.44
30618;BME280;17384;51.214;9.202;2023-03-03T02:51:23;99239.72;;;-1.55;90.47
30618;BME280;17384;51.214;9.202;2023-03-03T02:53:48;99242.84;;;-1.50;90.47
30618;BME280;17384;51.214;9.202;2023-03-03T02:56:14;99250.06;;;-1.41;90.14
30618;BME280;17384;51.214;9.202;2023-03-03T02:58:39;99248.88;;;-1.48;90.01
30618;BME280;17384;51.214;9.202;2023-03-03T03:01:05;99243.56;;;-1.48;90.40
30618;BME280;17384;51.214;9.202;2023-03-03T03:03:31;99245.75;;;-1.53;90.16
30618;BME280;17384;51.214;9.202;2023-03-03T03:05:56;99238.97;;;-1.46;90.04
30618;BME280;17384;51.214;9.202;2023-03-03T03:08:22;99249.72;;;-1.68;90.93
30618;BME280;17384;51.214;9.202;2023-03-03T03:10:47;99232.06;;;-1.69;90.93
30618;BME280;17384;51.214;9.202;2023-03-03T03:13:13;99249.03;;;-1.82;91.50
30618;BME280;17384;51.214;9.202;2023-03-03T03:15:39;99255.09;;;-1.91;91.46
30618;BME280;17384;51.214;9.202;2023-03-03T03:18:04;99254.84;;;-1.88;91.49
30618;BME280;17384;51.214;9.202;2023-03-03T03:20:31;99253.03;;;-1.87;91.52
30618;BME280;17384;51.214;9.202;2023-03-03T03:22:59;99247.38;;;-1.94;91.82
30618;BME280;17384;51.214;9.202;2023-03-03T03:25:25;99251.03;;;-1.95;92.15
30618;BME280;17384;51.214;9.202;2023-03-03T03:27:50;99263.47;;;-1.95;92.06
30618;BME280;17384;51.214;9.202;2023-03-03T03:30:16;99253.19;;;-2.00;92.34
30618;BME280;17384;51.214;9.202;2023-03-03T03:32:41;99269.88;;;-1.98;92.54
30618;BME280;17384;51.214;9.202;2023-03-03T03:35:07;99257.31;;;-2.07;92.61
30618;BME280;17384;51.214;9.202;2023-03-03T03:37:33;99261.53;;;-2.05;92.65
30618;BME280;17384;51.214;9.202;2023-03-03T03:39:58;99266.50;;;-2.00;93.02
30618;BME280;17384;51.214;9.202;2023-03-03T03:42:24;99262.03;;;-1.99;93.01
30618;BME280;17384;51.214;9.202;2023-03-03T03:44:49;99270.47;;;-1.94;93.11
30618;BME280;17384;51.214;9.202;2023-03-03T03:47:15;99264.31;;;-1.95;92.86
30618;BME280;17384;51.214;9.202;2023-03-03T03:49:41;99257.78;;;-2.02;93.30
30618;BME280;17384;51.214;9.202;2023-03-03T03:52:06;99268.69;;;-2.05;93.19
30618;BME280;17384;51.214;9.202;2023-03-03T03:54:32;99263.22;;;-2.03;93.35
30618;BME280;17384;51.214;9.202;2023-03-03T03:56:57;99267.72;;;-2.04;93.23
30618;BME280;17384;51.214;9.202;2023-03-03T03:59:23;99265.66;;;-2.00;93.37
30618;BME280;17384;51.214;9.202;2023-03-03T04:01:48;99280.75;;;-2.01;93.51
30618;BME280;17384;51.214;9.202;2023-03-03T04:04:15;99262.75;;;-1.97;93.51
30618;BME280;17384;51.214;9.202;2023-03-03T04:06:40;99276.34;;;-1.91;93.03
30618;BME280;17384;51.214;9.202;2023-03-03T04:09:05;99259.25;;;-1.98;93.07
30618;BME280;17384;51.214;9.202;2023-03-03T04:11:31;99270.13;;;-2.01;92.75
30618;BME280;17384;51.214;9.202;2023-03-03T04:13:56;99274.47;;;-2.11;93.25
30618;BME280;17384;51.214;9.202;2023-03-03T04:16:22;99278.09;;;-2.01;93.07
30618;BME280;17384;51.214;9.202;2023-03-03T04:18:48;99284.03;;;-2.09;93.01
30618;BME280;17384;51.214;9.202;2023-03-03T04:21:14;99272.78;;;-2.01;93.33
30618;BME280;17384;51.214;9.202;2023-03-03T04:23:40;99263.13;;;-2.02;93.44
30618;BME280;17384;51.214;9.202;2023-03-03T04:26:07;99293.06;;;-2.00;93.28
30618;BME280;17384;51.214;9.202;2023-03-03T04:28:32;99284.28;;;-2.12;93.73
30618;BME280;17384;51.214;9.202;2023-03-03T04:30:58;99280.88;;;-2.14;93.47
30618;BME280;17384;51.214;9.202;2023-03-03T04:33:24;99279.19;;;-2.15;93.88
30618;BME280;17384;51.214;9.202;2023-03-03T04:35:49;99274.47;;;-2.00;93.91
30618;BME280;17384;51.214;9.202;2023-03-03T04:38:16;99284.97;;;-1.98;93.72
30618;BME280;17384;51.214;9.202;2023-03-03T04:40:42;99295.63;;;-1.98;93.79
30618;BME280;17384;51.214;9.202;2023-03-03T04:43:09;99287.16;;;-2.03;93.82
30618;BME280;17384;51.214;9.202;2023-03-03T04:45:34;99295.97;;;-2.03;93.68
30618;BME280;17384;51.214;9.202;2023-03-03T04:48:00;99295.84;;;-2.01;93.57
30618;BME280;17384;51.214;9.202;2023-03-03T04:50:26;99292.72;;;-2.07;93.40
30618;BME280;17384;51.214;9.202;2023-03-03T04:52:51;99294.78;;;-2.10;93.67
30618;BME280;17384;51.214;9.202;2023-03-03T04:55:17;99286.91;;;-2.00;93.68
30618;BME280;17384;51.214;9.202;2023-03-03T04:57:43;99294.75;;;-1.99;93.54
30618;BME280;17384;51.214;9.202;2023-03-03T05:00:10;99283.88;;;-1.96;93.43
30618;BME280;17384;51.214;9.202;2023-03-03T05:02:38;99284.56;;;-1.83;93.13
30618;BME280;17384;51.214;9.202;2023-03-03T05:05:05;99273.69;;;-1.91;92.97
30618;BME280;17384;51.214;9.202;2023-03-03T05:07:30;99282.53;;;-1.90;93.23
30618;BME280;17384;51.214;9.202;2023-03-03T05:09:56;99278.56;;;-1.96;92.80
30618;BME280;17384;51.214;9.202;2023-03-03T05:12:21;99266.97;;;-1.95;92.91
30618;BME280;17384;51.214;9.202;2023-03-03T05:14:47;99282.09;;;-2.07;92.60
30618;BME280;17384;51.214;9.202;2023-03-03T05:17:12;99280.75;;;-2.01;92.37
30618;BME280;17384;51.214;9.202;2023-03-03T05:19:38;99274.00;;;-2.05;92.50
30618;BME280;17384;51.214;9.202;2023-03-03T05:22:04;99272.06;;;-2.03;92.36
30618;BME280;17384;51.214;9.202;2023-03-03T05:24:30;99276.16;;;-2.10;92.60
30618;BME280;17384;51.214;9.202;2023-03-03T05:26:55;99261.44;;;-2.03;92.54
30618;BME280;17384;51.214;9.202;2023-03-03T05:29:21;99286.00;;;-2.22;92.57
30618;BME280;17384;51.214;9.202;2023-03-03T05:31:46;99286.56;;;-2.18;93.07
30618;BME280;17384;51.214;9.202;2023-03-03T05:34:12;99294.66;;;-2.09;92.96
30618;BME280;17384;51.214;9.202;2023-03-03T05:36:37;99289.25;;;-2.29;93.18
30618;BME280;17384;51.214;9.202;2023-03-03T05:39:03;99301.56;;;-2.28;93.13
30618;BME280;17384;51.214;9.202;2023-03-03T05:41:28;99298.69;;;-2.25;93.38
30618;BME280;17384;51.214;9.202;2023-03-03T05:43:54;99302.28;;;-2.15;93.32
30618;BME280;17384;51.214;9.202;2023-03-03T05:46:19;99304.31;;;-2.19;93.10
30618;BME280;17384;51.214;9.202;2023-03-03T05:48:45;99312.66;;;-2.12;93.41
30618;BME280;17384;51.214;9.202;2023-03-03T05:51:10;99311.81;;;-2.13;93.21
30618;BME280;17384;51.214;9.202;2023-03-03T05:53:36;99310.25;;;-2.15;93.22
30618;BME280;17384;51.214;9.202;2023-03-03T05:56:02;99314.72;;;-2.16;93.33
30618;BME280;17384;51.214;9.202;2023-03-03T05:58:28;99316.41;;;-2.15;93.43
30618;BME280;17384;51.214;9.202;2023-03-03T06:00:54;99308.06;;;-2.10;92.85
30618;BME280;17384;51.214;9.202;2023-03-03T06:03:20;99299.72;;;-2.06;93.09
30618;BME280;17384;51.214;9.202;2023-03-03T06:05:45;99309.50;;;-2.06;92.96
30618;BME280;17384;51.214;9.202;2023-03-03T06:08:11;99324.97;;;-2.00;92.80
30618;BME280;17384;51.214;9.202;2023-03-03T06:10:36;99322.19;;;-2.10;92.91
30618;BME280;17384;51.214;9.202;2023-03-03T06:13:02;99309.28;;;-2.03;92.85
30618;BME280;17384;51.214;9.202;2023-03-03T06:15:27;99313.63;;;-2.02;92.88
30618;BME280;17384;51.214;9.202;2023-03-03T06:17:53;99320.63;;;-2.01;92.82
30618;BME280;17384;51.214;9.202;2023-03-03T06:20:18;99324.72;;;-1.97;92.77
30618;BME280;17384;51.214;9.202;2023-03-03T06:22:44;99329.56;;;-2.02;92.54
30618;BME280;17384;51.214;9.202;2023-03-03T06:25:10;99323.84;;;-1.86;92.32
30618;BME280;17384;51.214;9.202;2023-03-03T06:27:35;99327.88;;;-1.92;92.75
30618;BME280;17384;51.214;9.202;2023-03-03T06:30:01;99325.91;;;-1.90;92.27
30618;BME280;17384;51.214;9.202;2023-03-03T06:32:26;99327.09;;;-1.83;92.03
30618;BME280;17384;51.214;9.202;2023-03-03T06:34:52;99329.53;;;-1.91;91.56
30618;BME280;17384;51.214;9.202;2023-03-03T06:37:18;99346.09;;;-1.87;91.99
30618;BME280;17384;51.214;9.202;2023-03-03T06:39:44;99340.66;;;-1.86;91.71
30618;BME280;17384;51.214;9.202;2023-03-03T06:42:09;99331.22;;;-1.90;91.83
30618;BME280;17384;51.214;9.202;2023-03-03T06:44:35;99341.00;;;-1.90;91.80
30618;BME280;17384;51.214;9.202;2023-03-03T06:47:01;99353.34;;;-1.89;92.13
30618;BME280;17384;51.214;9.202;2023-03-03T06:49:27;99341.84;;;-1.90;92.46
30618;BME280;17384;51.214;9.202;2023-03-03T06:51:53;99346.31;;;-1.90;92.55
30618;BME280;17384;51.214;9.202;2023-03-03T06:54:23;99344.41;;;-1.88;92.90
30618;BME280;17384;51.214;9.202;2023-03-03T06:56:56;99357.31;;;-1.84;92.76
30618;BME280;17384;51.214;9.202;2023-03-03T06:59:22;99341.00;;;-1.79;92.75
30618;BME280;17384;51.214;9.202;2023-03-03T07:01:49;99356.59;;;-1.75;92.42
30618;BME280;17384;51.214;9.202;2023-03-03T07:06:43;99363.41;;;-1.93;92.61
30618;BME280;17384;51.214;9.202;2023-03-03T07:09:27;99361.19;;;-1.88;92.70
30618;BME280;17384;51.214;9.202;2023-03-03T07:11:59;99363.50;;;-1.83;92.66
30618;BME280;17384;51.214;9.202;2023-03-03T07:14:25;99372.31;;;-1.83;92.20
30618;BME280;17384;51.214;9.202;2023-03-03T07:16:55;99373.03;;;-1.81;92.23
30618;BME280;17384;51.214;9.202;2023-03-03T07:19:34;99358.03;;;-1.71;92.41
30618;BME280;17384;51.214;9.202;2023-03-03T07:24:38;99366.50;;;-1.65;91.84
30618;BME280;17384;51.214;9.202;2023-03-03T07:29:39;99363.97;;;-1.67;91.59
30618;BME280;17384;51.214;9.202;2023-03-03T07:32:17;99381.34;;;-1.63;91.65
30618;BME280;17384;51.214;9.202;2023-03-03T07:34:47;99370.91;;;-1.55;91.66
30618;BME280;17384;51.214;9.202;2023-03-03T07:37:29;99373.22;;;-1.50;91.76
30618;BME280;17384;51.214;9.202;2023-03-03T07:39:56;99358.72;;;-1.57;91.53
30618;BME280;17384;51.214;9.202;2023-03-03T07:44:57;99376.22;;;-1.44;91.47
30618;BME280;17384;51.214;9.202;2023-03-03T07:49:53;99399.56;;;-1.47;90.76
30618;BME280;17384;51.214;9.202;2023-03-03T07:52:28;99388.69;;;-1.55;91.15
30618;BME280;17384;51.214;9.202;2023-03-03T07:54:58;99392.44;;;-1.47;90.81
30618;BME280;17384;51.214;9.202;2023-03-03T07:57:27;99407.06;;;-1.52;90.76
30618;BME280;17384;51.214;9.202;2023-03-03T07:59:59;99403.94;;;-1.46;90.11
30618;BME280;17384;51.214;9.202;2023-03-03T08:05:37;99406.81;;;-1.38;89.99
30618;BME280;17384;51.214;9.202;2023-03-03T08:10:52;99408.34;;;-1.24;89.22
30618;BME280;17384;51.214;9.202;2023-03-03T08:13:39;99405.09;;;-1.07;88.93
30618;BME280;17384;51.214;9.202;2023-03-03T08:18:43;99416.34;;;-1.04;88.68
30618;BME280;17384;51.214;9.202;2023-03-03T08:21:18;99420.81;;;-0.93;88.56
30618;BME280;17384;51.214;9.202;2023-03-03T08:23:44;99415.63;;;-1.06;88.26
30618;BME280;17384;51.214;9.202;2023-03-03T08:26:10;99413.22;;;-1.09;88.97
30618;BME280;17384;51.214;9.202;2023-03-03T08:28:38;99413.31;;;-0.99;88.80
30618;BME280;17384;51.214;9.202;2023-03-03T08:31:03;99422.75;;;-0.95;88.07
30618;BME280;17384;51.214;9.202;2023-03-03T08:33:29;99432.75;;;-0.87;88.26
30618;BME280;17384;51.214;9.202;2023-03-03T08:35:54;99423.13;;;-0.99;88.43
30618;BME280;17384;51.214;9.202;2023-03-03T08:38:21;99438.97;;;-0.98;88.70
30618;BME280;17384;51.214;9.202;2023-03-03T08:40:47;99429.28;;;-0.99;88.79
30618;BME280;17384;51.214;9.202;2023-03-03T08:43:14;99429.13;;;-0.86;88.57
30618;BME280;17384;51.214;9.202;2023-03-03T08:45:45;99437.97;;;-0.65;88.24
30618;BME280;17384;51.214;9.202;2023-03-03T08:48:11;99431.22;;;-0.69;87.75
30618;BME280;17384;51.214;9.202;2023-03-03T08:50:37;99440.31;;;-0.72;87.79
30618;BME280;17384;51.214;9.202;2023-03-03T08:53:03;99443.22;;;-0.75;88.09
30618;BME280;17384;51.214;9.202;2023-03-03T08:55:28;99439.00;;;-0.77;87.91
30618;BME280;17384;51.214;9.202;2023-03-03T08:57:54;99432.91;;;-0.68;87.83
30618;BME280;17384;51.214;9.202;2023-03-03T09:00:19;99434.22;;;-0.83;87.56
30618;BME280;17384;51.214;9.202;2023-03-03T09:02:45;99444.50;;;-0.58;87.51
30618;BME280;17384;51.214;9.202;2023-03-03T09:05:12;99437.56;;;-0.81;87.43
30618;BME280;17384;51.214;9.202;2023-03-03T09:07:38;99444.63;;;-0.59;87.54
30618;BME280;17384;51.214;9.202;2023-03-03T09:10:04;99439.66;;;-0.64;86.71
30618;BME280;17384;51.214;9.202;2023-03-03T09:12:34;99451.19;;;-0.43;86.33
30618;BME280;17384;51.214;9.202;2023-03-03T09:15:20;99447.88;;;-0.35;86.47
30618;BME280;17384;51.214;9.202;2023-03-03T09:17:47;99437.91;;;-0.12;85.83
30618;BME280;17384;51.214;9.202;2023-03-03T09:20:38;99446.28;;;-0.17;85.43
30618;BME280;17384;51.214;9.202;2023-03-03T09:25:48;99454.94;;;-0.04;84.00
30618;BME280;17384;51.214;9.202;2023-03-03T09:28:32;99457.72;;;-0.05;83.95
30618;BME280;17384;51.214;9.202;2023-03-03T09:31:02;99453.13;;;0.07;83.57
30618;BME280;17384;51.214;9.202;2023-03-03T09:33:44;99457.28;;;-0.10;84.62
30618;BME280;17384;51.214;9.202;2023-03-03T09:36:15;99456.38;;;0.10;83.90
30618;BME280;17384;51.214;9.202;2023-03-03T09:38:44;99453.28;;;0.05;84.11
30618;BME280;17384;51.214;9.202;2023-03-03T09:49:54;99439.97;;;0.45;81.26
30618;BME280;17384;51.214;9.202;2023-03-03T09:55:39;99474.44;;;0.67;80.29
30618;BME280;17384;51.214;9.202;2023-03-03T09:58:18;99462.66;;;0.70;78.81
30618;BME280;17384;51.214;9.202;2023-03-03T10:06:37;99459.00;;;0.31;82.38
30618;BME280;17384;51.214;9.202;2023-03-03T10:17:43;99470.41;;;0.83;80.42
30618;BME280;17384;51.214;9.202;2023-03-03T10:22:55;99479.69;;;0.79;79.67
30618;BME280;17384;51.214;9.202;2023-03-03T10:25:39;99474.34;;;0.88;79.80
30618;BME280;17384;51.214;9.202;2023-03-03T10:28:29;99474.34;;;0.79;79.51
30618;BME280;17384;51.214;9.202;2023-03-03T11:10:23;99482.28;;;1.28;76.72
30618;BME280;17384;51.214;9.202;2023-03-03T11:24:30;99483.13;;;1.39;76.40
30618;BME280;17384;51.214;9.202;2023-03-03T11:27:08;99481.16;;;1.31;76.43
30618;BME280;17384;51.214;9.202;2023-03-03T11:40:17;99464.41;;;1.48;76.32
30618;BME280;17384;51.214;9.202;2023-03-03T11:42:57;99467.09;;;1.29;76.19
30618;BME280;17384;51.214;9.202;2023-03-03T11:45:36;99470.75;;;1.28;76.70
30618;BME280;17384;51.214;9.202;2023-03-03T11:51:19;99462.28;;;1.42;77.03
30618;BME280;17384;51.214;9.202;2023-03-03T11:53:57;99462.56;;;1.39;76.97
30618;BME280;17384;51.214;9.202;2023-03-03T11:56:28;99466.53;;;1.25;76.71
30618;BME280;17384;51.214;9.202;2023-03-03T12:01:44;99455.66;;;1.85;75.19
30618;BME280;17384;51.214;9.202;2023-03-03T12:04:14;99459.47;;;1.73;76.95
30618;BME280;17384;51.214;9.202;2023-03-03T12:12:09;99440.88;;;1.71;76.54
30618;BME280;17384;51.214;9.202;2023-03-03T12:17:28;99438.25;;;1.23;77.43
30618;BME280;17384;51.214;9.202;2023-03-03T12:25:40;99444.03;;;1.28;77.53
30618;BME280;17384;51.214;9.202;2023-03-03T12:31:15;99442.31;;;1.17;77.84
30618;BME280;17384;51.214;9.202;2023-03-03T12:37:01;99436.44;;;1.04;79.20
30618;BME280;17384;51.214;9.202;2023-03-03T12:42:24;99444.53;;;0.83;79.03
30618;BME280;17384;51.214;9.202;2023-03-03T12:47:42;99428.81;;;0.99;78.62
30618;BME280;17384;51.214;9.202;2023-03-03T12:55:59;99433.88;;;1.22;79.51
30618;BME280;17384;51.214;9.202;2023-03-03T12:58:48;99428.25;;;1.25;77.86
30618;BME280;17384;51.214;9.202;2023-03-03T13:04:31;99418.97;;;1.39;77.24
30618;BME280;17384;51.214;9.202;2023-03-03T13:12:54;99413.31;;;1.61;76.69
30618;BME280;17384;51.214;9.202;2023-03-03T13:21:09;99416.84;;;1.61;76.38
30618;BME280;17384;51.214;9.202;2023-03-03T13:26:09;99413.47;;;1.40;77.42
30618;BME280;17384;51.214;9.202;2023-03-03T13:28:39;99414.03;;;1.44;77.08
30618;BME280;17384;51.214;9.202;2023-03-03T13:33:35;99402.91;;;1.39;77.29
30618;BME280;17384;51.214;9.202;2023-03-03T13:36:06;99408.13;;;1.40;77.43
30618;BME280;17384;51.214;9.202;2023-03-03T13:38:37;99402.50;;;1.43;77.27
30618;BME280;17384;51.214;9.202;2023-03-03T13:41:13;99405.19;;;1.33;77.49
30618;BME280;17384;51.214;9.202;2023-03-03T13:43:52;99406.88;;;1.25;77.56
30618;BME280;17384;51.214;9.202;2023-03-03T13:49:20;99408.28;;;1.19;77.14
30618;BME280;17384;51.214;9.202;2023-03-03T13:57:33;99411.34;;;1.53;76.24
30618;BME280;17384;51.214;9.202;2023-03-03T14:07:59;99399.34;;;1.67;76.61
30618;BME280;17384;51.214;9.202;2023-03-03T14:10:35;99381.53;;;1.48;76.63
30618;BME280;17384;51.214;9.202;2023-03-03T14:13:08;99400.53;;;1.55;76.57
30618;BME280;17384;51.214;9.202;2023-03-03T14:15:47;99396.31;;;1.43;76.81
30618;BME280;17384;51.214;9.202;2023-03-03T14:18:20;99393.81;;;1.31;76.93
30618;BME280;17384;51.214;9.202;2023-03-03T14:20:50;99388.75;;;1.28;77.28
30618;BME280;17384;51.214;9.202;2023-03-03T14:23:22;99395.19;;;1.45;76.58
30618;BME280;17384;51.214;9.202;2023-03-03T14:25:57;99382.47;;;1.66;76.23
30618;BME280;17384;51.214;9.202;2023-03-03T14:28:25;99385.69;;;1.80;75.84
30618;BME280;17384;51.214;9.202;2023-03-03T14:30:56;99391.00;;;1.89;74.76
30618;BME280;17384;51.214;9.202;2023-03-03T14:33:26;99389.25;;;1.98;74.55
30618;BME280;17384;51.214;9.202;2023-03-03T14:41:37;99378.63;;;1.32;77.98
30618;BME280;17384;51.214;9.202;2023-03-03T14:44:36;99383.81;;;1.33;77.56
30618;BME280;17384;51.214;9.202;2023-03-03T14:47:19;99372.84;;;1.27;77.68
30618;BME280;17384;51.214;9.202;2023-03-03T14:49:45;99370.06;;;1.09;79.07
30618;BME280;17384;51.214;9.202;2023-03-03T14:54:50;99369.75;;;1.22;77.93
30618;BME280;17384;51.214;9.202;2023-03-03T14:57:17;99371.16;;;1.26;77.96
30618;BME280;17384;51.214;9.202;2023-03-03T15:00:08;99355.72;;;0.91;78.71
30618;BME280;17384;51.214;9.202;2023-03-03T15:05:25;99358.25;;;0.92;79.18
30618;BME280;17384;51.214;9.202;2023-03-03T15:07:55;99356.53;;;1.20;78.72
30618;BME280;17384;51.214;9.202;2023-03-03T15:10:48;99352.16;;;1.10;79.04
30618;BME280;17384;51.214;9.202;2023-03-03T15:18:24;99356.69;;;1.19;78.44
30618;BME280;17384;51.214;9.202;2023-03-03T15:26:25;99346.97;;;1.18;78.49
30618;BME280;17384;51.214;9.202;2023-03-03T15:29:21;99336.28;;;1.18;78.63
30618;BME280;17384;51.214;9.202;2023-03-03T15:34:35;99342.75;;;1.15;78.46
30618;BME280;17384;51.214;9.202;2023-03-03T15:42:26;99343.88;;;1.32;78.28
30618;BME280;17384;51.214;9.202;2023-03-03T15:45:26;99342.84;;;1.43;77.85
30618;BME280;17384;51.214;9.202;2023-03-03T16:01:16;99332.28;;;1.51;78.88
30618;BME280;17384;51.214;9.202;2023-03-03T16:04:00;99319.63;;;1.43;78.67
30618;BME280;17384;51.214;9.202;2023-03-03T16:18:01;99333.19;;;1.13;79.86
30618;BME280;17384;51.214;9.202;2023-03-03T16:29:07;99327.69;;;1.14;79.57
30618;BME280;17384;51.214;9.202;2023-03-03T16:34:13;99334.59;;;1.17;79.35
30618;BME280;17384;51.214;9.202;2023-03-03T16:37:03;99334.59;;;1.17;79.02
30618;BME280;17384;51.214;9.202;2023-03-03T16:39:55;99338.38;;;1.24;78.82
30618;BME280;17384;51.214;9.202;2023-03-03T16:42:28;99346.97;;;1.18;78.85
30618;BME280;17384;51.214;9.202;2023-03-03T16:50:42;99347.28;;;1.05;78.76
30618;BME280;17384;51.214;9.202;2023-03-03T16:59:09;99355.13;;;0.87;78.84
30618;BME280;17384;51.214;9.202;2023-03-03T17:06:58;99362.16;;;0.69;79.15
30618;BME280;17384;51.214;9.202;2023-03-03T17:17:46;99365.81;;;-0.01;79.66
30618;BME280;17384;51.214;9.202;2023-03-03T17:39:47;99372.22;;;-0.64;81.56
30618;BME280;17384;51.214;9.202;2023-03-03T17:42:28;99368.84;;;-0.66;81.24
30618;BME280;17384;51.214;9.202;2023-03-03T17:56:24;99386.94;;;-1.02;81.36
30618;BME280;17384;51.214;9.202;2023-03-03T17:59:32;99378.06;;;-1.12;81.70
30618;BME280;17384;51.214;9.202;2023-03-03T18:07:20;99382.34;;;-1.32;82.71
30618;BME280;17384;51.214;9.202;2023-03-03T18:21:13;99389.91;;;-1.59;83.53
30618;BME280;17384;51.214;9.202;2023-03-03T18:23:43;99395.28;;;-1.71;83.36
30618;BME280;17384;51.214;9.202;2023-03-03T18:32:16;99399.16;;;-1.86;84.16
30618;BME280;17384;51.214;9.202;2023-03-03T18:34:39;99405.78;;;-1.91;84.53
30618;BME280;17384;51.214;9.202;2023-03-03T18:42:39;99416.56;;;-2.15;85.14
30618;BME280;17384;51.214;9.202;2023-03-03T18:50:48;99413.44;;;-2.20;86.04
30618;BME280;17384;51.214;9.202;2023-03-03T18:53:24;99421.50;;;-2.11;85.72
30618;BME280;17384;51.214;9.202;2023-03-03T18:55:52;99418.38;;;-2.05;85.47
30618;BME280;17384;51.214;9.202;2023-03-03T19:09:49;99416.91;;;-1.86;85.68
30618;BME280;17384;51.214;9.202;2023-03-03T19:12:53;99424.78;;;-1.85;85.90
30618;BME280;17384;51.214;9.202;2023-03-03T19:18:27;99410.66;;;-1.96;86.19
30618;BME280;17384;51.214;9.202;2023-03-03T19:20:59;99423.81;;;-1.95;86.38
30618;BME280;17384;51.214;9.202;2023-03-03T19:23:48;99418.00;;;-1.89;86.33
30618;BME280;17384;51.214;9.202;2023-03-03T19:35:16;99423.31;;;-1.89;86.38
30618;BME280;17384;51.214;9.202;2023-03-03T19:48:26;99428.13;;;-1.49;90.04
30618;BME280;17384;51.214;9.202;2023-03-03T19:57:46;99416.50;;;-1.37;90.27
30618;BME280;17384;51.214;9.202;2023-03-03T20:00:47;99415.66;;;-1.49;90.25
30618;BME280;17384;51.214;9.202;2023-03-03T20:03:24;99422.91;;;-1.51;90.17
30618;BME280;17384;51.214;9.202;2023-03-03T20:14:02;99423.41;;;-1.57;89.34
30618;BME280;17384;51.214;9.202;2023-03-03T20:16:40;99424.16;;;-1.66;89.22